createdAt,value
2023-02-26T00:00:39.083Z,0.00
2023-02-26T00:01:39.312Z,0.00
2023-02-26T00:02:39.522Z,0.00
2023-02-26T00:03:39.717Z,0.00
2023-02-26T00:04:39.969Z,0.00
2023-02-26T00:05:40.173Z,0.00
2023-02-26T00:06:40.421Z,0.00
2023-02-26T00:07:40.642Z,0.00
2023-02-26T00:08:40.832Z,0.00
2023-02-26T00:09:41.052Z,0.00
2023-02-26T00:10:41.250Z,0.00
2023-02-26T00:11:41.536Z,0.00
2023-02-26T00:12:41.748Z,0.00
2023-02-26T00:13:41.935Z,0.00
2023-02-26T00:14:42.053Z,0.00
2023-02-26T00:15:42.262Z,0.00
2023-02-26T00:16:42.514Z,0.00
2023-02-26T00:17:42.743Z,0.00
2023-02-26T00:18:42.981Z,0.00
2023-02-26T00:19:43.204Z,0.00
2023-02-26T00:20:43.401Z,0.00
2023-02-26T00:21:43.630Z,0.00
2023-02-26T00:22:43.851Z,0.00
2023-02-26T00:23:44.084Z,0.00
2023-02-26T00:24:44.269Z,0.00
2023-02-26T00:25:44.502Z,0.00
2023-02-26T00:26:44.700Z,0.00
2023-02-26T00:27:44.912Z,0.00
2023-02-26T00:28:45.126Z,0.00
2023-02-26T00:29:45.317Z,0.00
2023-02-26T00:30:45.589Z,0.00
2023-02-26T00:31:45.911Z,0.00
2023-02-26T00:32:46.003Z,0.00
2023-02-26T00:33:46.097Z,0.00
2023-02-26T00:34:46.293Z,0.00
2023-02-26T00:35:46.523Z,0.00
2023-02-26T00:36:46.764Z,0.00
2023-02-26T00:37:46.980Z,0.00
2023-02-26T00:38:47.186Z,0.00
2023-02-26T00:39:47.414Z,0.00
2023-02-26T00:40:47.634Z,0.00
2023-02-26T00:41:47.853Z,0.00
2023-02-26T00:42:48.062Z,0.00
2023-02-26T00:43:48.285Z,0.00
2023-02-26T00:44:48.504Z,0.00
2023-02-26T00:45:48.740Z,0.00
2023-02-26T00:46:48.984Z,0.00
2023-02-26T00:47:49.218Z,0.00
2023-02-26T00:48:49.423Z,0.00
2023-02-26T00:49:49.640Z,0.00
2023-02-26T00:50:49.879Z,0.00
2023-02-26T00:51:50.125Z,0.00
2023-02-26T00:52:50.351Z,0.00
2023-02-26T00:53:50.559Z,0.00
2023-02-26T00:54:50.761Z,0.00
2023-02-26T00:55:50.978Z,0.00
2023-02-26T00:56:51.192Z,0.00
2023-02-26T00:57:51.396Z,0.00
2023-02-26T00:58:51.587Z,0.00
2023-02-26T00:59:51.805Z,0.00
2023-02-26T01:00:51.979Z,0.00
2023-02-26T01:01:52.223Z,0.00
2023-02-26T01:02:52.394Z,0.00
2023-02-26T01:03:52.657Z,0.00
2023-02-26T01:04:52.854Z,0.00
2023-02-26T01:05:53.084Z,0.00
2023-02-26T01:06:53.286Z,0.00
2023-02-26T01:07:53.515Z,0.00
2023-02-26T01:08:53.708Z,0.00
2023-02-26T01:09:53.944Z,0.00
2023-02-26T01:10:54.154Z,0.00
2023-02-26T01:11:54.373Z,0.00
2023-02-26T01:12:54.573Z,0.00
2023-02-26T01:13:54.763Z,0.00
2023-02-26T01:14:54.964Z,0.00
2023-02-26T01:15:55.188Z,0.00
2023-02-26T01:16:55.382Z,0.00
2023-02-26T01:17:55.578Z,0.00
2023-02-26T01:18:55.768Z,0.00
2023-02-26T01:19:55.954Z,0.00
2023-02-26T01:20:56.132Z,0.00
2023-02-26T01:21:56.348Z,0.00
2023-02-26T01:22:56.559Z,0.00
2023-02-26T01:23:56.757Z,0.00
2023-02-26T01:24:57.005Z,0.00
2023-02-26T01:25:57.200Z,0.00
2023-02-26T01:26:57.403Z,0.00
2023-02-26T01:27:57.605Z,0.00
2023-02-26T01:28:57.786Z,0.00
2023-02-26T01:29:57.997Z,0.00
2023-02-26T01:30:58.290Z,0.00
2023-02-26T01:31:58.624Z,0.00
2023-02-26T01:32:58.616Z,0.00
2023-02-26T01:33:58.832Z,0.00
2023-02-26T01:34:59.010Z,0.00
2023-02-26T01:35:59.227Z,0.00
2023-02-26T01:36:59.446Z,0.00
2023-02-26T01:37:59.634Z,0.00
2023-02-26T01:38:59.832Z,0.00
2023-02-26T01:40:00.016Z,0.00
2023-02-26T01:41:00.211Z,0.00
2023-02-26T01:42:00.419Z,0.00
2023-02-26T01:43:00.630Z,0.00
2023-02-26T01:44:00.833Z,0.00
2023-02-26T01:45:01.019Z,0.00
2023-02-26T01:46:01.229Z,0.00
2023-02-26T01:47:01.449Z,0.00
2023-02-26T01:48:01.660Z,0.00
2023-02-26T01:49:01.860Z,0.00
2023-02-26T01:50:02.044Z,0.00
2023-02-26T01:51:02.234Z,0.00
2023-02-26T01:52:02.446Z,0.00
2023-02-26T01:53:02.693Z,0.00
2023-02-26T01:54:02.886Z,0.00
2023-02-26T01:55:03.080Z,0.00
2023-02-26T01:56:03.267Z,0.00
2023-02-26T01:57:03.473Z,0.00
2023-02-26T01:58:03.694Z,0.00
2023-02-26T01:59:03.889Z,0.00
2023-02-26T02:00:04.081Z,0.00
2023-02-26T02:01:04.288Z,0.00
2023-02-26T02:02:04.480Z,0.00
2023-02-26T02:03:04.727Z,0.00
2023-02-26T02:04:04.910Z,0.00
2023-02-26T02:05:05.107Z,0.00
2023-02-26T02:06:05.398Z,0.00
2023-02-26T02:07:05.488Z,0.00
2023-02-26T02:08:05.749Z,0.00
2023-02-26T02:09:05.827Z,0.00
2023-02-26T02:10:06.021Z,0.00
2023-02-26T02:11:06.221Z,0.00
2023-02-26T02:12:06.418Z,0.00
2023-02-26T02:13:06.602Z,0.00
2023-02-26T02:14:06.814Z,0.00
2023-02-26T02:15:07.007Z,0.00
2023-02-26T02:16:07.237Z,0.00
2023-02-26T02:17:07.409Z,0.00
2023-02-26T02:18:07.602Z,0.00
2023-02-26T02:19:07.842Z,0.00
2023-02-26T02:20:07.992Z,0.00
2023-02-26T02:21:08.160Z,0.00
2023-02-26T02:22:08.362Z,0.00
2023-02-26T02:23:08.545Z,0.00
2023-02-26T02:24:08.737Z,0.00
2023-02-26T02:25:08.908Z,0.00
2023-02-26T02:26:09.108Z,0.00
2023-02-26T02:27:09.307Z,0.00
2023-02-26T02:28:09.501Z,0.00
2023-02-26T02:29:09.731Z,0.00
2023-02-26T02:30:09.906Z,0.00
2023-02-26T02:31:10.122Z,0.00
2023-02-26T02:32:10.465Z,0.00
2023-02-26T02:33:10.478Z,0.00
2023-02-26T02:34:10.665Z,0.00
2023-02-26T02:35:10.853Z,0.00
2023-02-26T02:36:11.070Z,0.00
2023-02-26T02:37:11.279Z,0.00
2023-02-26T02:38:11.514Z,0.00
2023-02-26T02:39:11.702Z,0.00
2023-02-26T02:40:11.901Z,0.00
2023-02-26T02:41:12.146Z,0.00
2023-02-26T02:42:12.400Z,0.00
2023-02-26T02:43:12.680Z,0.00
2023-02-26T02:44:12.767Z,0.00
2023-02-26T02:45:12.952Z,0.00
2023-02-26T02:46:13.237Z,0.00
2023-02-26T02:47:13.358Z,0.00
2023-02-26T02:48:13.561Z,0.00
2023-02-26T02:49:13.753Z,0.00
2023-02-26T02:50:13.957Z,0.00
2023-02-26T02:51:14.117Z,0.00
2023-02-26T02:52:14.315Z,0.00
2023-02-26T02:53:14.491Z,0.00
2023-02-26T02:54:14.715Z,0.00
2023-02-26T02:55:14.876Z,0.00
2023-02-26T02:56:15.075Z,0.00
2023-02-26T02:57:15.262Z,0.00
2023-02-26T02:58:15.474Z,0.00
2023-02-26T02:59:15.674Z,0.00
2023-02-26T03:00:15.868Z,0.00
2023-02-26T03:01:16.097Z,0.00
2023-02-26T03:02:16.379Z,0.00
2023-02-26T03:03:16.470Z,0.00
2023-02-26T03:04:16.652Z,0.00
2023-02-26T03:05:16.819Z,0.00
2023-02-26T03:06:24.021Z,0.00
2023-02-26T03:07:17.181Z,0.00
2023-02-26T03:08:17.370Z,0.00
2023-02-26T03:09:17.566Z,0.00
2023-02-26T03:10:17.749Z,0.00
2023-02-26T03:11:17.925Z,0.00
2023-02-26T03:12:18.158Z,0.00
2023-02-26T03:13:18.373Z,0.00
2023-02-26T03:14:18.574Z,0.00
2023-02-26T03:15:18.756Z,0.00
2023-02-26T03:16:19.016Z,0.00
2023-02-26T03:17:19.217Z,0.00
2023-02-26T03:18:19.403Z,0.00
2023-02-26T03:19:19.582Z,0.00
2023-02-26T03:20:19.781Z,0.00
2023-02-26T03:21:19.957Z,0.00
2023-02-26T03:22:20.155Z,0.00
2023-02-26T03:23:20.336Z,0.00
2023-02-26T03:24:20.552Z,0.00
2023-02-26T03:25:20.718Z,0.00
2023-02-26T03:26:20.920Z,0.00
2023-02-26T03:27:21.111Z,0.00
2023-02-26T03:28:21.292Z,0.00
2023-02-26T03:29:21.466Z,0.00
2023-02-26T03:30:21.658Z,0.00
2023-02-26T03:31:21.960Z,0.00
2023-02-26T03:32:22.249Z,0.00
2023-02-26T03:33:22.336Z,0.00
2023-02-26T03:34:22.516Z,0.00
2023-02-26T03:35:22.709Z,0.00
2023-02-26T03:36:23.349Z,0.00
2023-02-26T03:37:23.153Z,0.00
2023-02-26T03:38:23.327Z,0.00
2023-02-26T03:39:23.512Z,0.00
2023-02-26T03:40:23.692Z,0.00
2023-02-26T03:41:23.875Z,0.00
2023-02-26T03:42:24.064Z,0.00
2023-02-26T03:43:24.250Z,0.00
2023-02-26T03:44:24.439Z,0.00
2023-02-26T03:45:24.625Z,0.00
2023-02-26T03:46:25.098Z,0.00
2023-02-26T03:47:25.034Z,0.00
2023-02-26T03:48:25.230Z,0.00
2023-02-26T03:49:25.415Z,0.00
2023-02-26T03:50:25.593Z,0.00
2023-02-26T03:51:25.799Z,0.00
2023-02-26T03:52:25.977Z,0.00
2023-02-26T03:53:26.162Z,0.00
2023-02-26T03:54:26.331Z,0.00
2023-02-26T03:55:26.523Z,0.00
2023-02-26T03:56:27.029Z,0.00
2023-02-26T03:57:26.953Z,0.00
2023-02-26T03:58:27.130Z,0.00
2023-02-26T03:59:27.316Z,0.00
2023-02-26T04:00:27.482Z,0.00
2023-02-26T04:01:27.671Z,0.00
2023-02-26T04:02:27.894Z,0.00
2023-02-26T04:03:28.104Z,0.00
2023-02-26T04:04:28.323Z,0.00
2023-02-26T04:05:28.488Z,0.00
2023-02-26T04:06:28.660Z,0.00
2023-02-26T04:07:28.862Z,0.00
2023-02-26T04:08:29.030Z,0.00
2023-02-26T04:09:29.214Z,0.00
2023-02-26T04:10:29.380Z,0.00
2023-02-26T04:11:29.557Z,0.00
2023-02-26T04:12:29.769Z,0.00
2023-02-26T04:13:29.954Z,0.00
2023-02-26T04:14:30.123Z,0.00
2023-02-26T04:15:30.307Z,0.00
2023-02-26T04:16:30.545Z,0.00
2023-02-26T04:17:30.720Z,0.00
2023-02-26T04:18:30.888Z,0.00
2023-02-26T04:19:31.064Z,0.00
2023-02-26T04:20:31.211Z,0.00
2023-02-26T04:21:31.398Z,0.00
2023-02-26T04:22:31.582Z,0.00
2023-02-26T04:23:31.753Z,0.00
2023-02-26T04:24:31.946Z,0.00
2023-02-26T04:25:32.128Z,0.00
2023-02-26T04:26:32.293Z,0.00
2023-02-26T04:27:32.470Z,0.00
2023-02-26T04:28:32.627Z,0.00
2023-02-26T04:29:32.798Z,0.00
2023-02-26T04:30:33.016Z,0.00
2023-02-26T04:31:33.260Z,0.00
2023-02-26T04:32:33.577Z,0.00
2023-02-26T04:33:33.696Z,0.00
2023-02-26T04:34:33.928Z,0.00
2023-02-26T04:35:34.175Z,0.00
2023-02-26T04:36:34.352Z,0.00
2023-02-26T04:37:34.555Z,0.00
2023-02-26T04:38:34.765Z,0.00
2023-02-26T04:39:34.922Z,0.00
2023-02-26T04:40:35.094Z,0.00
2023-02-26T04:41:35.268Z,0.00
2023-02-26T04:42:35.460Z,0.00
2023-02-26T04:43:35.655Z,0.00
2023-02-26T04:44:35.820Z,0.00
2023-02-26T04:45:36.027Z,0.00
2023-02-26T04:46:36.236Z,0.00
2023-02-26T04:47:36.403Z,0.00
2023-02-26T04:48:36.584Z,0.00
2023-02-26T04:49:36.773Z,0.00
2023-02-26T04:50:36.952Z,0.00
2023-02-26T04:51:37.138Z,0.00
2023-02-26T04:52:37.332Z,0.00
2023-02-26T04:53:37.523Z,0.00
2023-02-26T04:54:37.689Z,0.00
2023-02-26T04:55:37.879Z,0.00
2023-02-26T04:56:38.064Z,0.00
2023-02-26T04:57:38.261Z,0.00
2023-02-26T04:58:38.443Z,0.00
2023-02-26T04:59:38.617Z,0.00
2023-02-26T05:00:38.814Z,0.00
2023-02-26T05:01:39.067Z,0.00
2023-02-26T05:02:39.196Z,0.00
2023-02-26T05:03:39.422Z,0.00
2023-02-26T05:04:39.713Z,0.00
2023-02-26T05:05:39.822Z,0.00
2023-02-26T05:06:40.009Z,0.00
2023-02-26T05:07:40.201Z,0.00
2023-02-26T05:08:40.379Z,0.00
2023-02-26T05:09:40.572Z,0.00
2023-02-26T05:10:40.747Z,0.00
2023-02-26T05:11:40.966Z,0.00
2023-02-26T05:12:41.180Z,0.00
2023-02-26T05:13:41.365Z,0.00
2023-02-26T05:14:41.556Z,0.00
2023-02-26T05:15:41.798Z,0.00
2023-02-26T05:16:42.010Z,0.00
2023-02-26T05:17:42.210Z,0.00
2023-02-26T05:18:42.400Z,0.00
2023-02-26T05:19:42.602Z,0.00
2023-02-26T05:20:42.772Z,0.00
2023-02-26T05:21:42.979Z,0.00
2023-02-26T05:22:43.189Z,0.00
2023-02-26T05:23:43.378Z,0.00
2023-02-26T05:24:43.557Z,0.00
2023-02-26T05:25:43.750Z,0.00
2023-02-26T05:26:43.940Z,0.00
2023-02-26T05:27:44.180Z,0.00
2023-02-26T05:28:44.375Z,0.00
2023-02-26T05:29:44.723Z,0.00
2023-02-26T05:30:44.827Z,0.00
2023-02-26T05:31:45.086Z,0.00
2023-02-26T05:32:45.163Z,0.00
2023-02-26T05:33:45.416Z,0.00
2023-02-26T05:34:45.634Z,0.00
2023-02-26T05:35:45.877Z,0.00
2023-02-26T05:36:46.109Z,0.00
2023-02-26T05:37:46.341Z,0.00
2023-02-26T05:38:46.588Z,0.00
2023-02-26T05:39:46.836Z,0.00
2023-02-26T05:40:47.072Z,0.00
2023-02-26T05:41:47.334Z,0.00
2023-02-26T05:42:47.593Z,0.00
2023-02-26T05:43:47.740Z,0.00
2023-02-26T05:44:47.959Z,0.00
2023-02-26T05:45:48.210Z,0.00
2023-02-26T05:46:48.510Z,0.00
2023-02-26T05:47:48.659Z,0.00
2023-02-26T05:48:48.772Z,0.00
2023-02-26T05:49:49.016Z,0.00
2023-02-26T05:50:49.203Z,0.00
2023-02-26T05:51:49.401Z,0.00
2023-02-26T05:52:49.609Z,0.00
2023-02-26T05:53:49.821Z,0.00
2023-02-26T05:54:50.021Z,0.00
2023-02-26T05:55:50.225Z,0.00
2023-02-26T05:56:50.428Z,0.00
2023-02-26T05:57:50.645Z,5.62
2023-02-26T05:58:50.843Z,5.62
2023-02-26T05:59:51.051Z,5.62
2023-02-26T06:00:51.253Z,5.62
2023-02-26T06:01:51.484Z,5.62
2023-02-26T06:02:51.680Z,5.62
2023-02-26T06:03:51.860Z,5.62
2023-02-26T06:04:52.058Z,11.25
2023-02-26T06:05:52.271Z,11.25
2023-02-26T06:06:52.459Z,11.25
2023-02-26T06:07:52.675Z,11.25
2023-02-26T06:08:52.863Z,11.25
2023-02-26T06:09:53.064Z,11.25
2023-02-26T06:10:53.252Z,11.25
2023-02-26T06:11:53.470Z,16.88
2023-02-26T06:12:53.684Z,16.88
2023-02-26T06:13:53.871Z,16.88
2023-02-26T06:14:54.064Z,16.88
2023-02-26T06:15:54.351Z,22.50
2023-02-26T06:16:54.427Z,22.50
2023-02-26T06:17:54.644Z,22.50
2023-02-26T06:18:54.855Z,28.12
2023-02-26T06:19:55.034Z,28.12
2023-02-26T06:20:55.232Z,28.12
2023-02-26T06:21:55.426Z,28.12
2023-02-26T06:22:55.633Z,33.75
2023-02-26T06:23:55.843Z,33.75
2023-02-26T06:24:56.043Z,33.75
2023-02-26T06:25:56.253Z,39.38
2023-02-26T06:26:56.448Z,39.38
2023-02-26T06:27:56.656Z,45.00
2023-02-26T06:28:56.851Z,45.00
2023-02-26T06:29:57.046Z,50.62
2023-02-26T06:30:57.319Z,50.62
2023-02-26T06:31:57.660Z,56.25
2023-02-26T06:32:57.714Z,61.88
2023-02-26T06:33:57.911Z,67.50
2023-02-26T06:34:58.115Z,67.50
2023-02-26T06:35:58.360Z,78.75
2023-02-26T06:36:58.543Z,78.75
2023-02-26T06:37:58.776Z,84.38
2023-02-26T06:38:58.982Z,84.38
2023-02-26T06:39:59.164Z,90.00
2023-02-26T06:40:59.346Z,90.00
2023-02-26T06:41:59.543Z,95.62
2023-02-26T06:42:59.752Z,101.25
2023-02-26T06:43:59.941Z,101.25
2023-02-26T06:45:00.139Z,101.25
2023-02-26T06:46:00.401Z,95.62
2023-02-26T06:47:00.497Z,95.62
2023-02-26T06:48:00.707Z,101.25
2023-02-26T06:49:00.884Z,112.50
2023-02-26T06:50:01.069Z,106.88
2023-02-26T06:51:01.255Z,106.88
2023-02-26T06:52:01.443Z,106.88
2023-02-26T06:53:01.633Z,106.88
2023-02-26T06:54:01.829Z,106.88
2023-02-26T06:55:02.007Z,112.50
2023-02-26T06:56:02.220Z,112.50
2023-02-26T06:57:02.394Z,123.75
2023-02-26T06:58:02.594Z,140.62
2023-02-26T06:59:02.777Z,146.25
2023-02-26T07:00:03.065Z,157.50
2023-02-26T07:01:03.166Z,163.12
2023-02-26T07:02:03.389Z,168.75
2023-02-26T07:03:03.579Z,275.62
2023-02-26T07:04:03.780Z,292.50
2023-02-26T07:05:03.959Z,326.25
2023-02-26T07:06:25.662Z,371.25
2023-02-26T07:07:05.366Z,382.50
2023-02-26T07:08:04.542Z,393.75
2023-02-26T07:09:04.733Z,309.38
2023-02-26T07:10:04.831Z,303.75
2023-02-26T07:11:05.056Z,264.38
2023-02-26T07:12:05.281Z,230.62
2023-02-26T07:13:05.528Z,225.00
2023-02-26T07:14:05.736Z,213.75
2023-02-26T07:15:05.949Z,213.75
2023-02-26T07:16:06.165Z,213.75
2023-02-26T07:17:06.393Z,225.00
2023-02-26T07:18:06.610Z,236.25
2023-02-26T07:19:06.706Z,258.75
2023-02-26T07:20:06.945Z,264.38
2023-02-26T07:21:07.165Z,258.75
2023-02-26T07:22:07.455Z,253.12
2023-02-26T07:23:07.551Z,247.50
2023-02-26T07:24:07.777Z,241.88
2023-02-26T07:25:07.894Z,225.00
2023-02-26T07:26:08.121Z,208.12
2023-02-26T07:27:08.347Z,208.12
2023-02-26T07:28:08.626Z,236.25
2023-02-26T07:29:08.754Z,258.75
2023-02-26T07:30:09.065Z,264.38
2023-02-26T07:31:09.330Z,270.00
2023-02-26T07:32:09.447Z,281.25
2023-02-26T07:33:09.498Z,303.75
2023-02-26T07:34:09.692Z,337.50
2023-02-26T07:35:09.838Z,371.25
2023-02-26T07:36:10.008Z,399.38
2023-02-26T07:37:10.166Z,427.50
2023-02-26T07:38:10.326Z,478.12
2023-02-26T07:39:10.476Z,517.50
2023-02-26T07:40:10.645Z,562.50
2023-02-26T07:41:10.777Z,489.38
2023-02-26T07:42:11.037Z,500.62
2023-02-26T07:43:11.191Z,478.12
2023-02-26T07:44:11.310Z,562.50
2023-02-26T07:45:11.543Z,793.12
2023-02-26T07:46:11.847Z,849.38
2023-02-26T07:47:11.988Z,956.25
2023-02-26T07:48:12.215Z,1051.88
2023-02-26T07:49:12.323Z,1068.75
2023-02-26T07:50:12.519Z,1108.12
2023-02-26T07:51:12.727Z,1125.00
2023-02-26T07:52:12.916Z,1153.12
2023-02-26T07:53:13.134Z,1164.38
2023-02-26T07:54:13.287Z,1175.62
2023-02-26T07:55:13.456Z,1231.88
2023-02-26T07:56:13.615Z,1282.50
2023-02-26T07:57:13.768Z,1327.50
2023-02-26T07:58:13.936Z,1316.25
2023-02-26T07:59:14.073Z,1198.12
2023-02-26T08:00:14.239Z,1321.88
2023-02-26T08:01:14.404Z,1321.88
2023-02-26T08:02:14.531Z,1355.62
2023-02-26T08:03:14.684Z,1473.75
2023-02-26T08:04:14.827Z,1181.25
2023-02-26T08:05:14.960Z,1507.50
2023-02-26T08:06:15.118Z,1569.38
2023-02-26T08:07:15.252Z,1620.00
2023-02-26T08:08:15.414Z,1614.38
2023-02-26T08:09:15.546Z,1580.62
2023-02-26T08:10:15.661Z,1636.88
2023-02-26T08:11:15.780Z,1665.00
2023-02-26T08:12:15.898Z,1653.75
2023-02-26T08:13:16.043Z,1653.75
2023-02-26T08:14:16.155Z,1653.75
2023-02-26T08:15:16.269Z,1625.62
2023-02-26T08:16:16.470Z,1642.50
2023-02-26T08:17:16.466Z,1698.75
2023-02-26T08:18:16.576Z,1715.62
2023-02-26T08:19:16.688Z,1743.75
2023-02-26T08:20:16.790Z,1771.88
2023-02-26T08:21:16.897Z,1794.38
2023-02-26T08:22:16.981Z,1856.25
2023-02-26T08:23:17.110Z,1856.25
2023-02-26T08:24:17.206Z,1856.25
2023-02-26T08:25:17.338Z,1861.88
2023-02-26T08:26:17.436Z,1878.75
2023-02-26T08:27:17.524Z,1822.50
2023-02-26T08:28:17.651Z,1856.25
2023-02-26T08:29:17.765Z,1963.12
2023-02-26T08:30:17.874Z,1946.25
2023-02-26T08:31:18.142Z,1951.88
2023-02-26T08:32:18.134Z,2002.50
2023-02-26T08:33:18.196Z,2154.38
2023-02-26T08:34:18.293Z,2221.88
2023-02-26T08:35:18.394Z,2126.25
2023-02-26T08:36:18.474Z,2098.12
2023-02-26T08:37:18.593Z,2075.62
2023-02-26T08:38:18.696Z,2137.50
2023-02-26T08:39:18.782Z,860.62
2023-02-26T08:40:18.861Z,2221.88
2023-02-26T08:41:18.944Z,2176.88
2023-02-26T08:42:19.033Z,2261.25
2023-02-26T08:43:19.158Z,2227.50
2023-02-26T08:44:19.224Z,2238.75
2023-02-26T08:45:19.333Z,2278.12
2023-02-26T08:46:19.428Z,2188.12
2023-02-26T08:47:28.370Z,2210.62
2023-02-26T08:48:20.542Z,2266.88
2023-02-26T08:49:19.628Z,2250.00
2023-02-26T08:50:19.706Z,2289.38
2023-02-26T08:51:19.788Z,2368.12
2023-02-26T08:52:19.870Z,2278.12
2023-02-26T08:53:19.960Z,2261.25
2023-02-26T08:54:20.071Z,2356.88
2023-02-26T08:55:20.154Z,2351.25
2023-02-26T08:56:20.219Z,2401.88
2023-02-26T08:57:20.313Z,2334.38
2023-02-26T08:58:20.376Z,2295.00
2023-02-26T08:59:20.456Z,2356.88
2023-02-26T09:00:20.529Z,2340.00
2023-02-26T09:01:20.600Z,2340.00
2023-02-26T09:02:20.659Z,2424.38
2023-02-26T09:03:20.727Z,2480.62
2023-02-26T09:04:20.801Z,1783.12
2023-02-26T09:05:20.887Z,2463.75
2023-02-26T09:07:18.941Z,2441.25
2023-02-26T09:08:19.006Z,2441.25
2023-02-26T09:09:19.187Z,2559.38
2023-02-26T09:10:19.380Z,2638.12
2023-02-26T09:11:19.527Z,2649.38
2023-02-26T09:12:19.715Z,2733.75
2023-02-26T09:13:19.887Z,2846.25
2023-02-26T09:14:20.042Z,2655.00
2023-02-26T09:15:20.238Z,2407.50
2023-02-26T09:16:20.456Z,2418.75
2023-02-26T09:17:20.596Z,2542.50
2023-02-26T09:18:20.763Z,2660.62
2023-02-26T09:19:20.926Z,680.62
2023-02-26T09:20:21.098Z,2930.62
2023-02-26T09:21:21.293Z,2840.62
2023-02-26T09:22:21.486Z,2778.75
2023-02-26T09:23:21.655Z,2745.00
2023-02-26T09:24:21.852Z,2756.25
2023-02-26T09:25:24.531Z,2801.25
2023-02-26T09:26:22.138Z,2795.62
2023-02-26T09:27:22.322Z,2818.12
2023-02-26T09:28:22.496Z,2958.75
2023-02-26T09:29:22.652Z,3065.62
2023-02-26T09:30:22.867Z,691.88
2023-02-26T09:31:23.051Z,3054.38
2023-02-26T09:32:23.254Z,2919.38
2023-02-26T09:33:23.306Z,2936.25
2023-02-26T09:34:23.464Z,3071.25
2023-02-26T09:35:23.650Z,2041.88
2023-02-26T09:36:24.143Z,2925.00
2023-02-26T09:37:23.949Z,3116.25
2023-02-26T09:38:24.137Z,1220.62
2023-02-26T09:39:24.291Z,517.50
2023-02-26T09:40:24.453Z,3015.00
2023-02-26T09:41:24.617Z,2891.25
2023-02-26T09:42:24.785Z,2970.00
2023-02-26T09:43:24.976Z,2992.50
2023-02-26T09:44:25.139Z,2936.25
2023-02-26T09:45:25.425Z,3009.38
2023-02-26T09:46:25.863Z,3003.75
2023-02-26T09:47:25.590Z,2902.50
2023-02-26T09:48:25.738Z,2941.88
2023-02-26T09:49:25.905Z,2992.50
2023-02-26T09:50:26.076Z,3144.38
2023-02-26T09:51:26.221Z,3189.38
2023-02-26T09:52:26.385Z,3375.00
2023-02-26T09:53:26.484Z,3358.12
2023-02-26T09:54:26.614Z,3116.25
2023-02-26T09:55:26.774Z,3352.50
2023-02-26T09:56:27.217Z,3301.88
2023-02-26T09:57:27.111Z,3178.12
2023-02-26T09:58:27.255Z,3166.88
2023-02-26T09:59:27.390Z,3279.38
2023-02-26T10:00:27.564Z,3515.62
2023-02-26T10:01:27.747Z,3521.25
2023-02-26T10:02:27.890Z,3425.62
2023-02-26T10:03:28.072Z,1366.88
2023-02-26T10:04:28.269Z,3571.88
2023-02-26T10:05:28.312Z,1406.25
2023-02-26T10:06:28.807Z,3228.75
2023-02-26T10:07:28.613Z,2278.12
2023-02-26T10:08:28.831Z,1378.12
2023-02-26T10:09:28.870Z,2070.00
2023-02-26T10:10:29.024Z,1215.00
2023-02-26T10:11:29.173Z,1029.38
2023-02-26T10:12:29.326Z,753.75
2023-02-26T10:13:29.502Z,725.62
2023-02-26T10:14:29.670Z,725.62
2023-02-26T10:15:29.844Z,697.50
2023-02-26T10:16:30.577Z,708.75
2023-02-26T10:17:30.150Z,646.88
2023-02-26T10:18:30.360Z,658.12
2023-02-26T10:19:30.544Z,635.62
2023-02-26T10:20:30.776Z,714.38
2023-02-26T10:21:30.988Z,826.88
2023-02-26T10:22:31.087Z,860.62
2023-02-26T10:23:31.273Z,1738.12
2023-02-26T10:24:31.467Z,781.88
2023-02-26T10:25:31.728Z,624.38
2023-02-26T10:26:31.924Z,725.62
2023-02-26T10:27:32.128Z,1991.25
2023-02-26T10:28:32.322Z,939.38
2023-02-26T10:29:32.512Z,2975.62
2023-02-26T10:30:32.809Z,1873.12
2023-02-26T10:31:32.974Z,838.12
2023-02-26T10:32:33.157Z,2975.62
2023-02-26T10:33:33.300Z,2986.88
2023-02-26T10:34:33.502Z,2975.62
2023-02-26T10:35:33.698Z,2970.00
2023-02-26T10:36:33.881Z,2818.12
2023-02-26T10:37:34.059Z,2930.62
2023-02-26T10:38:34.240Z,2975.62
2023-02-26T10:39:34.408Z,2896.88
2023-02-26T10:40:34.596Z,2902.50
2023-02-26T10:41:34.773Z,1063.12
2023-02-26T10:42:34.918Z,2823.75
2023-02-26T10:43:35.069Z,2716.88
2023-02-26T10:44:35.227Z,2801.25
2023-02-26T10:45:35.483Z,2902.50
2023-02-26T10:46:35.503Z,2857.50
2023-02-26T10:47:35.642Z,2739.38
2023-02-26T10:48:35.792Z,2745.00
2023-02-26T10:49:35.916Z,2812.50
2023-02-26T10:50:36.067Z,2756.25
2023-02-26T10:51:36.208Z,2913.75
2023-02-26T10:52:36.353Z,2970.00
2023-02-26T10:53:36.469Z,1828.12
2023-02-26T10:54:36.603Z,3054.38
2023-02-26T10:55:36.740Z,2013.75
2023-02-26T10:56:36.931Z,534.38
2023-02-26T10:57:37.038Z,483.75
2023-02-26T10:58:37.189Z,551.25
2023-02-26T10:59:37.339Z,3065.62
2023-02-26T11:00:37.528Z,3009.38
2023-02-26T11:01:37.741Z,2975.62
2023-02-26T11:02:37.857Z,624.38
2023-02-26T11:03:38.010Z,703.12
2023-02-26T11:04:38.185Z,798.75
2023-02-26T11:05:38.352Z,3110.62
2023-02-26T11:06:38.517Z,3065.62
2023-02-26T11:07:38.702Z,2891.25
2023-02-26T11:08:38.868Z,2902.50
2023-02-26T11:09:39.005Z,742.50
2023-02-26T11:10:39.187Z,641.25
2023-02-26T11:11:39.345Z,624.38
2023-02-26T11:12:39.544Z,720.00
2023-02-26T11:13:39.635Z,675.00
2023-02-26T11:14:39.807Z,607.50
2023-02-26T11:15:40.041Z,2919.38
2023-02-26T11:16:40.206Z,843.75
2023-02-26T11:17:40.369Z,2857.50
2023-02-26T11:18:40.542Z,2975.62
2023-02-26T11:19:40.736Z,2930.62
2023-02-26T11:20:40.947Z,2908.12
2023-02-26T11:21:41.132Z,2970.00
2023-02-26T11:22:41.290Z,2638.12
2023-02-26T11:23:41.455Z,3200.62
2023-02-26T11:24:41.670Z,3178.12
2023-02-26T11:25:41.838Z,3060.00
2023-02-26T11:26:42.014Z,3065.62
2023-02-26T11:27:42.171Z,2913.75
2023-02-26T11:28:42.341Z,669.38
2023-02-26T11:29:42.525Z,601.88
2023-02-26T11:30:42.764Z,646.88
2023-02-26T11:31:42.841Z,759.38
2023-02-26T11:32:43.048Z,3144.38
2023-02-26T11:33:43.217Z,3105.00
2023-02-26T11:34:43.413Z,781.88
2023-02-26T11:35:43.566Z,793.12
2023-02-26T11:36:43.750Z,765.00
2023-02-26T11:37:43.910Z,742.50
2023-02-26T11:38:44.074Z,725.62
2023-02-26T11:39:44.288Z,1113.75
2023-02-26T11:40:44.462Z,821.25
2023-02-26T11:41:44.674Z,2700.00
2023-02-26T11:42:44.830Z,3031.88
2023-02-26T11:43:45.300Z,1985.62
2023-02-26T11:44:45.206Z,725.62
2023-02-26T11:45:45.386Z,534.38
2023-02-26T11:46:45.588Z,433.12
2023-02-26T11:47:45.768Z,393.75
2023-02-26T11:48:45.967Z,405.00
2023-02-26T11:49:46.206Z,433.12
2023-02-26T11:50:46.404Z,466.88
2023-02-26T11:51:46.611Z,540.00
2023-02-26T11:52:46.851Z,641.25
2023-02-26T11:53:47.047Z,725.62
2023-02-26T11:54:47.272Z,725.62
2023-02-26T11:55:47.498Z,725.62
2023-02-26T11:56:47.713Z,973.12
2023-02-26T11:57:47.919Z,652.50
2023-02-26T11:58:48.144Z,585.00
2023-02-26T11:59:48.361Z,495.00
2023-02-26T12:00:48.582Z,444.38
2023-02-26T12:01:48.823Z,444.38
2023-02-26T12:02:49.090Z,506.25
2023-02-26T12:03:49.373Z,714.38
2023-02-26T12:04:49.620Z,1440.00
2023-02-26T12:05:49.724Z,1350.00
2023-02-26T12:06:49.998Z,1102.50
2023-02-26T12:07:50.216Z,2227.50
2023-02-26T12:08:50.475Z,691.88
2023-02-26T12:09:50.705Z,596.25
2023-02-26T12:10:50.927Z,517.50
2023-02-26T12:11:51.139Z,450.00
2023-02-26T12:12:51.356Z,371.25
2023-02-26T12:13:51.561Z,320.62
2023-02-26T12:14:51.812Z,292.50
2023-02-26T12:15:52.055Z,281.25
2023-02-26T12:16:52.262Z,281.25
2023-02-26T12:17:52.495Z,292.50
2023-02-26T12:18:52.735Z,292.50
2023-02-26T12:19:52.983Z,292.50
2023-02-26T12:20:53.221Z,303.75
2023-02-26T12:21:53.464Z,326.25
2023-02-26T12:22:53.688Z,337.50
2023-02-26T12:23:53.922Z,348.75
2023-02-26T12:24:54.168Z,360.00
2023-02-26T12:25:54.408Z,540.00
2023-02-26T12:26:54.641Z,2559.38
2023-02-26T12:27:54.875Z,2340.00
2023-02-26T12:28:55.114Z,2773.12
2023-02-26T12:29:55.384Z,2745.00
2023-02-26T12:30:55.725Z,2829.38
2023-02-26T12:31:55.947Z,2739.38
2023-02-26T12:32:56.001Z,2823.75
2023-02-26T12:33:56.227Z,2728.12
2023-02-26T12:34:56.450Z,2711.25
2023-02-26T12:35:56.647Z,2694.38
2023-02-26T12:36:56.840Z,2902.50
2023-02-26T12:37:57.092Z,3037.50
2023-02-26T12:38:57.258Z,3110.62
2023-02-26T12:39:57.466Z,1816.88
2023-02-26T12:40:57.655Z,2345.62
2023-02-26T12:41:57.875Z,1029.38
2023-02-26T12:42:58.034Z,1198.12
2023-02-26T12:43:58.216Z,1186.88
2023-02-26T12:44:58.396Z,427.50
2023-02-26T12:45:58.565Z,343.12
2023-02-26T12:46:58.811Z,309.38
2023-02-26T12:47:58.938Z,286.88
2023-02-26T12:48:59.113Z,264.38